sensor_id;sensor_type;location;lat;lon;timestamp;pressure;altitude;pressure_sealevel;temperature;humidity
59409;BME280;45213;32.654;-115.458;2023-01-19T00:00:13;102027.13;;;20.45;21.15
59409;BME280;45213;32.654;-115.458;2023-01-19T00:02:40;102035.13;;;20.41;20.85
59409;BME280;45213;32.654;-115.458;2023-01-19T00:05:08;102031.53;;;20.47;21.56
59409;BME280;45213;32.654;-115.458;2023-01-19T00:07:35;102039.59;;;20.37;20.47
59409;BME280;45213;32.654;-115.458;2023-01-19T00:10:01;102035.06;;;20.47;20.99
59409;BME280;45213;32.654;-115.458;2023-01-19T00:12:28;102043.97;;;20.40;21.18
59409;BME280;45213;32.654;-115.458;2023-01-19T00:14:55;102044.84;;;20.39;20.72
59409;BME280;45213;32.654;-115.458;2023-01-19T00:17:21;102046.84;;;20.18;21.09
59409;BME280;45213;32.654;-115.458;2023-01-19T00:19:48;102045.44;;;19.82;22.13
59409;BME280;45213;32.654;-115.458;2023-01-19T00:22:14;102042.22;;;19.45;22.26
59409;BME280;45213;32.654;-115.458;2023-01-19T00:24:41;102048.47;;;19.31;22.48
59409;BME280;45213;32.654;-115.458;2023-01-19T00:27:08;102044.19;;;19.12;22.82
59409;BME280;45213;32.654;-115.458;2023-01-19T00:29:34;102051.38;;;18.88;22.15
59409;BME280;45213;32.654;-115.458;2023-01-19T00:32:02;102044.41;;;18.69;23.85
59409;BME280;45213;32.654;-115.458;2023-01-19T00:34:29;102036.63;;;18.44;22.66
59409;BME280;45213;32.654;-115.458;2023-01-19T00:37:06;102034.91;;;18.25;23.12
59409;BME280;45213;32.654;-115.458;2023-01-19T00:39:32;102043.72;;;18.21;24.21
59409;BME280;45213;32.654;-115.458;2023-01-19T00:41:59;102041.09;;;18.05;24.15
59409;BME280;45213;32.654;-115.458;2023-01-19T00:44:44;102038.50;;;17.93;24.06
59409;BME280;45213;32.654;-115.458;2023-01-19T00:47:11;102036.72;;;17.77;24.65
59409;BME280;45213;32.654;-115.458;2023-01-19T00:49:37;102040.22;;;17.66;24.89
59409;BME280;45213;32.654;-115.458;2023-01-19T00:52:04;102035.84;;;17.53;25.03
59409;BME280;45213;32.654;-115.458;2023-01-19T00:54:30;102042.00;;;17.43;25.64
59409;BME280;45213;32.654;-115.458;2023-01-19T00:56:57;102046.38;;;17.39;28.41
59409;BME280;45213;32.654;-115.458;2023-01-19T00:59:23;102046.38;;;17.35;26.38
59409;BME280;45213;32.654;-115.458;2023-01-19T01:01:51;102041.09;;;17.22;26.88
59409;BME280;45213;32.654;-115.458;2023-01-19T01:04:17;102039.31;;;16.97;25.66
59409;BME280;45213;32.654;-115.458;2023-01-19T01:06:44;102050.66;;;16.83;25.77
59409;BME280;45213;32.654;-115.458;2023-01-19T01:09:10;102047.13;;;16.78;26.96
59409;BME280;45213;32.654;-115.458;2023-01-19T01:11:38;102047.09;;;16.72;27.58
59409;BME280;45213;32.654;-115.458;2023-01-19T01:14:05;102044.41;;;16.61;29.01
59409;BME280;45213;32.654;-115.458;2023-01-19T01:16:31;102056.59;;;16.48;28.56
59409;BME280;45213;32.654;-115.458;2023-01-19T01:18:58;102053.03;;;16.33;28.96
59409;BME280;45213;32.654;-115.458;2023-01-19T01:21:25;102056.50;;;16.30;29.44
59409;BME280;45213;32.654;-115.458;2023-01-19T01:23:51;102052.97;;;16.23;29.10
59409;BME280;45213;32.654;-115.458;2023-01-19T01:26:18;102066.03;;;16.11;30.68
59409;BME280;45213;32.654;-115.458;2023-01-19T01:28:44;102063.34;;;16.00;30.12
59409;BME280;45213;32.654;-115.458;2023-01-19T01:31:11;102061.56;;;15.95;30.04
59409;BME280;45213;32.654;-115.458;2023-01-19T01:33:38;102061.50;;;15.87;30.52
59409;BME280;45213;32.654;-115.458;2023-01-19T01:36:05;102058.78;;;15.78;30.03
59409;BME280;45213;32.654;-115.458;2023-01-19T01:38:32;102066.56;;;15.65;30.59
59409;BME280;45213;32.654;-115.458;2023-01-19T01:40:58;102066.56;;;15.65;32.15
59409;BME280;45213;32.654;-115.458;2023-01-19T01:43:42;102072.63;;;15.58;31.46
59409;BME280;45213;32.654;-115.458;2023-01-19T01:46:09;102070.81;;;15.54;31.59
59409;BME280;45213;32.654;-115.458;2023-01-19T01:48:36;102068.06;;;15.39;31.63
59409;BME280;45213;32.654;-115.458;2023-01-19T01:51:14;102074.09;;;15.29;32.71
59409;BME280;45213;32.654;-115.458;2023-01-19T01:54:25;102081.81;;;15.16;32.72
59409;BME280;45213;32.654;-115.458;2023-01-19T01:56:56;102068.66;;;15.10;32.26
59409;BME280;45213;32.654;-115.458;2023-01-19T01:59:30;102076.56;;;15.16;33.06
59409;BME280;45213;32.654;-115.458;2023-01-19T02:02:03;102074.69;;;15.04;33.51
59409;BME280;45213;32.654;-115.458;2023-01-19T02:04:56;102081.66;;;15.02;33.97
59409;BME280;45213;32.654;-115.458;2023-01-19T02:07:35;102085.97;;;14.96;34.59
59409;BME280;45213;32.654;-115.458;2023-01-19T02:10:23;102085.97;;;14.94;34.58
59409;BME280;45213;32.654;-115.458;2023-01-19T02:13:08;102085.00;;;14.88;35.13
59409;BME280;45213;32.654;-115.458;2023-01-19T02:15:47;102084.03;;;14.79;34.47
59409;BME280;45213;32.654;-115.458;2023-01-19T02:18:15;102089.25;;;14.76;34.83
59409;BME280;45213;32.654;-115.458;2023-01-19T02:20:46;102085.59;;;14.65;34.55
59409;BME280;45213;32.654;-115.458;2023-01-19T02:23:26;102089.00;;;14.59;35.49
59409;BME280;45213;32.654;-115.458;2023-01-19T02:25:56;102086.34;;;14.56;35.08
59409;BME280;45213;32.654;-115.458;2023-01-19T02:28:26;102088.94;;;14.55;35.79
59409;BME280;45213;32.654;-115.458;2023-01-19T02:30:53;102091.50;;;14.53;35.29
59409;BME280;45213;32.654;-115.458;2023-01-19T02:33:19;102098.44;;;14.47;35.80
59409;BME280;45213;32.654;-115.458;2023-01-19T02:35:47;102096.50;;;14.33;36.78
59409;BME280;45213;32.654;-115.458;2023-01-19T02:38:16;102091.22;;;14.32;36.34
59409;BME280;45213;32.654;-115.458;2023-01-19T02:40:44;102093.81;;;14.30;36.85
59409;BME280;45213;32.654;-115.458;2023-01-19T02:43:13;102098.94;;;14.23;37.57
59409;BME280;45213;32.654;-115.458;2023-01-19T02:45:42;102096.22;;;14.16;36.89
59409;BME280;45213;32.654;-115.458;2023-01-19T02:48:09;102098.78;;;14.12;37.48
59409;BME280;45213;32.654;-115.458;2023-01-19T03:04:18;102100.97;;;13.84;38.63
59409;BME280;45213;32.654;-115.458;2023-01-19T03:06:58;102100.84;;;13.78;39.20
59409;BME280;45213;32.654;-115.458;2023-01-19T03:09:40;102103.47;;;13.78;38.53
59409;BME280;45213;32.654;-115.458;2023-01-19T03:14:56;102099.53;;;13.53;39.15
59409;BME280;45213;32.654;-115.458;2023-01-19T03:17:26;102104.69;;;13.48;39.14
59409;BME280;45213;32.654;-115.458;2023-01-19T03:19:56;102111.47;;;13.37;40.38
59409;BME280;45213;32.654;-115.458;2023-01-19T03:22:28;102106.16;;;13.31;39.71
59409;BME280;45213;32.654;-115.458;2023-01-19T03:24:55;102108.56;;;13.23;40.32
59409;BME280;45213;32.654;-115.458;2023-01-19T03:27:27;102105.84;;;13.19;40.63
59409;BME280;45213;32.654;-115.458;2023-01-19T03:29:59;102112.78;;;13.16;40.68
59409;BME280;45213;32.654;-115.458;2023-01-19T03:32:31;102108.28;;;13.09;41.84
59409;BME280;45213;32.654;-115.458;2023-01-19T03:35:02;102110.03;;;13.09;40.79
59409;BME280;45213;32.654;-115.458;2023-01-19T03:37:33;102107.38;;;13.07;41.59
59409;BME280;45213;32.654;-115.458;2023-01-19T03:40:02;102113.47;;;13.06;40.91
59409;BME280;45213;32.654;-115.458;2023-01-19T03:42:29;102114.25;;;13.02;42.23
59409;BME280;45213;32.654;-115.458;2023-01-19T03:44:57;102124.56;;;12.94;42.58
59409;BME280;45213;32.654;-115.458;2023-01-19T03:47:26;102125.25;;;12.86;42.39
59409;BME280;45213;32.654;-115.458;2023-01-19T03:49:55;102126.97;;;12.84;42.24
59409;BME280;45213;32.654;-115.458;2023-01-19T03:52:30;102131.31;;;12.85;42.91
59409;BME280;45213;32.654;-115.458;2023-01-19T03:55:01;102127.88;;;12.86;42.41
59409;BME280;45213;32.654;-115.458;2023-01-19T03:57:29;102127.75;;;12.80;42.76
59409;BME280;45213;32.654;-115.458;2023-01-19T03:59:56;102130.22;;;12.73;42.38
59409;BME280;45213;32.654;-115.458;2023-01-19T04:02:23;102136.88;;;12.59;43.97
59409;BME280;45213;32.654;-115.458;2023-01-19T04:04:50;102136.72;;;12.51;44.01
59409;BME280;45213;32.654;-115.458;2023-01-19T04:07:16;102136.72;;;12.51;43.53
59409;BME280;45213;32.654;-115.458;2023-01-19T04:09:43;102134.06;;;12.50;44.00
59409;BME280;45213;32.654;-115.458;2023-01-19T04:12:10;102134.97;;;12.52;43.11
59409;BME280;45213;32.654;-115.458;2023-01-19T04:14:36;102132.38;;;12.52;42.88
59409;BME280;45213;32.654;-115.458;2023-01-19T04:17:03;102134.88;;;12.49;43.72
59409;BME280;45213;32.654;-115.458;2023-01-19T04:19:29;102144.41;;;12.45;43.67
59409;BME280;45213;32.654;-115.458;2023-01-19T04:21:56;102133.69;;;12.35;43.76
59409;BME280;45213;32.654;-115.458;2023-01-19T04:24:22;102138.78;;;12.28;43.81
59409;BME280;45213;32.654;-115.458;2023-01-19T04:26:50;102137.78;;;12.23;44.44
59409;BME280;45213;32.654;-115.458;2023-01-19T04:29:18;102148.13;;;12.19;44.49
59409;BME280;45213;32.654;-115.458;2023-01-19T04:31:45;102140.38;;;12.22;44.07
59409;BME280;45213;32.654;-115.458;2023-01-19T04:34:11;102146.28;;;12.15;43.79
59409;BME280;45213;32.654;-115.458;2023-01-19T04:36:38;102154.09;;;12.13;44.84
59409;BME280;45213;32.654;-115.458;2023-01-19T04:39:04;102151.44;;;12.11;44.89
59409;BME280;45213;32.654;-115.458;2023-01-19T04:41:31;102153.00;;;12.05;45.00
59409;BME280;45213;32.654;-115.458;2023-01-19T04:43:57;102143.28;;;11.98;45.72
59409;BME280;45213;32.654;-115.458;2023-01-19T04:46:24;102155.47;;;11.99;45.64
59409;BME280;45213;32.654;-115.458;2023-01-19T04:48:50;102149.19;;;11.90;44.75
59409;BME280;45213;32.654;-115.458;2023-01-19T04:51:17;102158.69;;;11.88;45.14
59409;BME280;45213;32.654;-115.458;2023-01-19T04:53:44;102159.63;;;11.90;46.40
59409;BME280;45213;32.654;-115.458;2023-01-19T04:56:10;102162.09;;;11.86;46.54
59409;BME280;45213;32.654;-115.458;2023-01-19T04:58:37;102168.00;;;11.80;45.11
59409;BME280;45213;32.654;-115.458;2023-01-19T05:01:07;102162.59;;;11.73;46.87
59409;BME280;45213;32.654;-115.458;2023-01-19T05:03:34;102158.19;;;11.70;46.54
59409;BME280;45213;32.654;-115.458;2023-01-19T05:06:01;102159.78;;;11.65;46.88
59409;BME280;45213;32.654;-115.458;2023-01-19T05:08:27;102162.25;;;11.60;46.04
59409;BME280;45213;32.654;-115.458;2023-01-19T05:10:54;102163.97;;;11.58;46.74
59409;BME280;45213;32.654;-115.458;2023-01-19T05:13:22;102158.63;;;11.54;46.92
59409;BME280;45213;32.654;-115.458;2023-01-19T05:15:49;102157.78;;;11.55;46.15
59409;BME280;45213;32.654;-115.458;2023-01-19T05:18:15;102157.59;;;11.48;46.08
59409;BME280;45213;32.654;-115.458;2023-01-19T05:20:42;102160.97;;;11.44;46.05
59409;BME280;45213;32.654;-115.458;2023-01-19T05:23:08;102160.00;;;11.41;47.18
59409;BME280;45213;32.654;-115.458;2023-01-19T05:25:35;102159.13;;;11.40;47.56
59409;BME280;45213;32.654;-115.458;2023-01-19T05:28:02;102163.50;;;11.41;46.74
59409;BME280;45213;32.654;-115.458;2023-01-19T05:30:29;102161.75;;;11.42;46.47
59409;BME280;45213;32.654;-115.458;2023-01-19T05:32:55;102166.19;;;11.44;46.82
59409;BME280;45213;32.654;-115.458;2023-01-19T05:35:22;102162.50;;;11.36;47.08
59409;BME280;45213;32.654;-115.458;2023-01-19T05:37:48;102160.44;;;11.26;46.61
59409;BME280;45213;32.654;-115.458;2023-01-19T05:40:15;102168.25;;;11.24;46.82
59409;BME280;45213;32.654;-115.458;2023-01-19T05:42:42;102168.38;;;11.29;46.33
59409;BME280;45213;32.654;-115.458;2023-01-19T05:45:09;102168.25;;;11.24;47.28
59409;BME280;45213;32.654;-115.458;2023-01-19T05:47:37;102170.81;;;11.23;47.74
59409;BME280;45213;32.654;-115.458;2023-01-19T05:50:05;102172.50;;;11.21;46.89
59409;BME280;45213;32.654;-115.458;2023-01-19T05:52:32;102175.94;;;11.20;46.73
59409;BME280;45213;32.654;-115.458;2023-01-19T05:54:59;102167.22;;;11.19;47.56
59409;BME280;45213;32.654;-115.458;2023-01-19T05:57:25;102174.88;;;11.13;47.96
59409;BME280;45213;32.654;-115.458;2023-01-19T05:59:52;102170.56;;;11.14;46.85
59409;BME280;45213;32.654;-115.458;2023-01-19T06:02:18;102171.34;;;11.11;47.36
59409;BME280;45213;32.654;-115.458;2023-01-19T06:04:45;102170.34;;;11.07;48.16
59409;BME280;45213;32.654;-115.458;2023-01-19T06:07:11;102170.50;;;11.12;48.54
59409;BME280;45213;32.654;-115.458;2023-01-19T06:09:38;102175.56;;;11.07;48.05
59409;BME280;45213;32.654;-115.458;2023-01-19T06:12:05;102167.44;;;10.97;48.32
59409;BME280;45213;32.654;-115.458;2023-01-19T06:14:31;102178.56;;;10.91;49.06
59409;BME280;45213;32.654;-115.458;2023-01-19T06:16:58;102171.69;;;10.93;49.58
59409;BME280;45213;32.654;-115.458;2023-01-19T06:19:24;102178.56;;;10.91;49.59
59409;BME280;45213;32.654;-115.458;2023-01-19T06:21:51;102175.03;;;10.89;48.98
59409;BME280;45213;32.654;-115.458;2023-01-19T06:24:18;102178.50;;;10.88;50.51
59409;BME280;45213;32.654;-115.458;2023-01-19T06:26:44;102174.75;;;10.80;49.81
59409;BME280;45213;32.654;-115.458;2023-01-19T06:29:11;102176.50;;;10.79;49.48
59409;BME280;45213;32.654;-115.458;2023-01-19T06:31:39;102180.78;;;10.77;49.26
59409;BME280;45213;32.654;-115.458;2023-01-19T06:34:05;102179.56;;;10.66;50.31
59409;BME280;45213;32.654;-115.458;2023-01-19T06:36:32;102177.66;;;10.33;50.00
59409;BME280;45213;32.654;-115.458;2023-01-19T06:38:59;102184.78;;;10.39;49.35
59409;BME280;45213;32.654;-115.458;2023-01-19T06:41:28;102180.06;;;10.54;49.61
59409;BME280;45213;32.654;-115.458;2023-01-19T06:43:55;102175.66;;;10.53;49.71
59409;BME280;45213;32.654;-115.458;2023-01-19T06:46:21;102180.16;;;10.57;50.35
59409;BME280;45213;32.654;-115.458;2023-01-19T06:48:48;102183.25;;;10.45;50.34
59409;BME280;45213;32.654;-115.458;2023-01-19T06:51:14;102182.38;;;10.45;49.70
59409;BME280;45213;32.654;-115.458;2023-01-19T06:53:41;102178.00;;;10.44;50.56
59409;BME280;45213;32.654;-115.458;2023-01-19T06:56:08;102178.84;;;10.43;49.65
59409;BME280;45213;32.654;-115.458;2023-01-19T06:58:35;102178.31;;;10.28;50.30
59409;BME280;45213;32.654;-115.458;2023-01-19T07:01:05;102174.63;;;10.21;51.55
59409;BME280;45213;32.654;-115.458;2023-01-19T07:03:33;102173.88;;;10.25;50.94
59409;BME280;45213;32.654;-115.458;2023-01-19T07:06:00;102167.00;;;10.27;50.60
59409;BME280;45213;32.654;-115.458;2023-01-19T07:08:35;102168.59;;;10.22;50.07
59409;BME280;45213;32.654;-115.458;2023-01-19T07:11:04;102167.50;;;10.15;50.96
59409;BME280;45213;32.654;-115.458;2023-01-19T07:13:32;102172.50;;;10.09;50.49
59409;BME280;45213;32.654;-115.458;2023-01-19T07:16:12;102160.50;;;10.14;51.11
59409;BME280;45213;32.654;-115.458;2023-01-19T07:18:39;102166.75;;;10.19;50.82
59409;BME280;45213;32.654;-115.458;2023-01-19T07:21:06;102171.66;;;10.10;50.99
59409;BME280;45213;32.654;-115.458;2023-01-19T07:23:33;102178.53;;;10.08;51.18
59409;BME280;45213;32.654;-115.458;2023-01-19T07:26:00;102174.84;;;10.01;51.44
59409;BME280;45213;32.654;-115.458;2023-01-19T07:28:27;102173.75;;;9.95;51.21
59409;BME280;45213;32.654;-115.458;2023-01-19T07:30:54;102165.97;;;9.95;51.04
59409;BME280;45213;32.654;-115.458;2023-01-19T07:33:22;102164.25;;;9.97;51.31
59409;BME280;45213;32.654;-115.458;2023-01-19T07:35:49;102168.66;;;9.98;51.07
59409;BME280;45213;32.654;-115.458;2023-01-19T07:38:17;102176.38;;;9.95;50.69
59409;BME280;45213;32.654;-115.458;2023-01-19T07:40:44;102160.69;;;9.93;51.16
59409;BME280;45213;32.654;-115.458;2023-01-19T07:43:12;102164.97;;;9.91;50.98
59409;BME280;45213;32.654;-115.458;2023-01-19T07:45:39;102169.13;;;9.86;51.23
59409;BME280;45213;32.654;-115.458;2023-01-19T07:48:05;102158.28;;;9.74;51.47
59409;BME280;45213;32.654;-115.458;2023-01-19T07:50:32;102154.75;;;9.72;52.12
59409;BME280;45213;32.654;-115.458;2023-01-19T07:53:08;102155.53;;;9.69;51.34
59409;BME280;45213;32.654;-115.458;2023-01-19T07:55:35;102154.56;;;9.66;51.37
59409;BME280;45213;32.654;-115.458;2023-01-19T07:58:01;102166.47;;;9.60;52.04
59409;BME280;45213;32.654;-115.458;2023-01-19T08:00:32;102162.22;;;9.62;51.75
59409;BME280;45213;32.654;-115.458;2023-01-19T08:02:59;102159.75;;;9.66;52.55
59409;BME280;45213;32.654;-115.458;2023-01-19T08:05:27;102156.22;;;9.64;52.29
59409;BME280;45213;32.654;-115.458;2023-01-19T08:07:57;102160.53;;;9.63;51.64
59409;BME280;45213;32.654;-115.458;2023-01-19T08:10:25;102153.53;;;9.62;51.43
59409;BME280;45213;32.654;-115.458;2023-01-19T08:12:53;102149.84;;;9.55;52.29
59409;BME280;45213;32.654;-115.458;2023-01-19T08:15:21;102155.72;;;9.50;51.64
59409;BME280;45213;32.654;-115.458;2023-01-19T08:17:59;102145.94;;;9.43;51.98
59409;BME280;45213;32.654;-115.458;2023-01-19T08:20:27;102143.44;;;9.46;51.94
59409;BME280;45213;32.654;-115.458;2023-01-19T08:22:54;102149.25;;;9.38;51.48
59409;BME280;45213;32.654;-115.458;2023-01-19T08:25:34;102144.88;;;9.37;52.04
59409;BME280;45213;32.654;-115.458;2023-01-19T08:28:03;102148.53;;;9.18;52.84
59409;BME280;45213;32.654;-115.458;2023-01-19T08:30:30;102147.84;;;9.24;52.58
59409;BME280;45213;32.654;-115.458;2023-01-19T08:32:57;102137.69;;;9.30;52.43
59409;BME280;45213;32.654;-115.458;2023-01-19T08:35:33;102147.16;;;9.28;52.18
59409;BME280;45213;32.654;-115.458;2023-01-19T08:38:03;102141.00;;;9.26;52.52
59409;BME280;45213;32.654;-115.458;2023-01-19T08:40:31;102149.59;;;9.24;52.97
59409;BME280;45213;32.654;-115.458;2023-01-19T08:43:03;102140.81;;;9.20;52.70
59409;BME280;45213;32.654;-115.458;2023-01-19T08:45:36;102145.25;;;9.24;52.57
59409;BME280;45213;32.654;-115.458;2023-01-19T08:48:03;102146.81;;;9.19;53.72
59409;BME280;45213;32.654;-115.458;2023-01-19T08:50:32;102139.72;;;9.15;53.82
59409;BME280;45213;32.654;-115.458;2023-01-19T08:53:00;102143.94;;;9.11;54.30
59409;BME280;45213;32.654;-115.458;2023-01-19T08:55:28;102140.00;;;8.98;53.41
59409;BME280;45213;32.654;-115.458;2023-01-19T08:57:56;102144.25;;;8.96;53.66
59409;BME280;45213;32.654;-115.458;2023-01-19T09:00:25;102121.13;;;8.80;53.95
59409;BME280;45213;32.654;-115.458;2023-01-19T09:02:52;102136.81;;;8.83;54.21
59409;BME280;45213;32.654;-115.458;2023-01-19T09:05:19;102141.31;;;8.87;54.65
59409;BME280;45213;32.654;-115.458;2023-01-19T09:07:46;102145.09;;;8.95;54.07
59409;BME280;45213;32.654;-115.458;2023-01-19T09:10:17;102142.78;;;9.03;53.86
59409;BME280;45213;32.654;-115.458;2023-01-19T09:12:44;102132.22;;;8.98;54.09
59409;BME280;45213;32.654;-115.458;2023-01-19T09:15:12;102132.88;;;8.93;54.23
59409;BME280;45213;32.654;-115.458;2023-01-19T09:17:41;102133.53;;;8.87;53.75
59409;BME280;45213;32.654;-115.458;2023-01-19T09:20:08;102130.72;;;8.81;53.77
59409;BME280;45213;32.654;-115.458;2023-01-19T09:22:35;102129.78;;;8.79;53.66
59409;BME280;45213;32.654;-115.458;2023-01-19T09:25:02;102124.34;;;8.73;54.84
59409;BME280;45213;32.654;-115.458;2023-01-19T09:27:29;102129.53;;;8.73;54.72
59409;BME280;45213;32.654;-115.458;2023-01-19T09:29:55;102117.50;;;8.75;55.28
59409;BME280;45213;32.654;-115.458;2023-01-19T09:32:22;102120.03;;;8.73;55.25
59409;BME280;45213;32.654;-115.458;2023-01-19T09:34:48;102124.16;;;8.68;54.98
59409;BME280;45213;32.654;-115.458;2023-01-19T09:37:16;102118.78;;;8.64;55.67
59409;BME280;45213;32.654;-115.458;2023-01-19T09:39:42;102123.84;;;8.61;56.24
59409;BME280;45213;32.654;-115.458;2023-01-19T09:42:42;102124.41;;;8.52;56.48
59409;BME280;45213;32.654;-115.458;2023-01-19T09:45:21;102127.78;;;8.49;55.64
59409;BME280;45213;32.654;-115.458;2023-01-19T09:47:53;102124.44;;;8.53;55.92
59409;BME280;45213;32.654;-115.458;2023-01-19T09:50:46;102111.09;;;8.44;56.34
59409;BME280;45213;32.654;-115.458;2023-01-19T09:53:22;102118.00;;;8.44;55.96
59409;BME280;45213;32.654;-115.458;2023-01-19T09:55:53;102117.69;;;8.36;55.90
59409;BME280;45213;32.654;-115.458;2023-01-19T09:58:23;102114.41;;;8.40;54.91
59409;BME280;45213;32.654;-115.458;2023-01-19T10:01:00;102111.81;;;8.40;55.24
59409;BME280;45213;32.654;-115.458;2023-01-19T10:03:29;102104.25;;;8.46;55.09
59409;BME280;45213;32.654;-115.458;2023-01-19T10:05:57;102111.66;;;8.37;55.13
59409;BME280;45213;32.654;-115.458;2023-01-19T10:26:52;102103.41;;;8.25;56.80
59409;BME280;45213;32.654;-115.458;2023-01-19T10:29:34;102116.91;;;8.16;57.14
59409;BME280;45213;32.654;-115.458;2023-01-19T10:32:08;102119.31;;;8.11;57.58
59409;BME280;45213;32.654;-115.458;2023-01-19T10:34:35;102122.09;;;8.16;57.88
59409;BME280;45213;32.654;-115.458;2023-01-19T10:37:04;102122.00;;;8.14;57.40
59409;BME280;45213;32.654;-115.458;2023-01-19T10:39:39;102120.47;;;8.20;57.39
59409;BME280;45213;32.654;-115.458;2023-01-19T10:42:14;102123.84;;;8.17;57.34
59409;BME280;45213;32.654;-115.458;2023-01-19T10:44:43;102116.56;;;8.08;56.81
59409;BME280;45213;32.654;-115.458;2023-01-19T10:47:17;102114.88;;;8.09;57.50
59409;BME280;45213;32.654;-115.458;2023-01-19T10:49:45;102116.44;;;8.05;57.86
59409;BME280;45213;32.654;-115.458;2023-01-19T10:54:47;102115.50;;;8.03;57.83
59409;BME280;45213;32.654;-115.458;2023-01-19T10:57:33;102115.13;;;7.94;57.77
59409;BME280;45213;32.654;-115.458;2023-01-19T11:00:03;102111.59;;;7.92;58.02
59409;BME280;45213;32.654;-115.458;2023-01-19T11:02:31;102109.75;;;7.89;58.66
59409;BME280;45213;32.654;-115.458;2023-01-19T11:05:22;102117.28;;;7.83;58.65
59409;BME280;45213;32.654;-115.458;2023-01-19T11:07:49;102111.78;;;7.76;58.81
59409;BME280;45213;32.654;-115.458;2023-01-19T11:12:45;102104.06;;;7.77;59.39
59409;BME280;45213;32.654;-115.458;2023-01-19T11:15:27;102111.78;;;7.76;58.78
59409;BME280;45213;32.654;-115.458;2023-01-19T11:17:55;102116.00;;;7.73;58.06
59409;BME280;45213;32.654;-115.458;2023-01-19T11:20:25;102112.44;;;7.70;58.22
59409;BME280;45213;32.654;-115.458;2023-01-19T11:25:53;102113.22;;;7.69;59.25
59409;BME280;45213;32.654;-115.458;2023-01-19T11:28:33;102108.81;;;7.66;59.14
59409;BME280;45213;32.654;-115.458;2023-01-19T11:31:15;102105.34;;;7.66;59.40
59409;BME280;45213;32.654;-115.458;2023-01-19T11:33:48;102104.66;;;7.70;59.30
59409;BME280;45213;32.654;-115.458;2023-01-19T11:36:17;102107.06;;;7.65;58.53
59409;BME280;45213;32.654;-115.458;2023-01-19T11:38:59;102107.72;;;7.61;58.48
59409;BME280;45213;32.654;-115.458;2023-01-19T11:41:34;102103.44;;;7.62;58.28
59409;BME280;45213;32.654;-115.458;2023-01-19T11:44:27;102106.63;;;7.56;58.60
59409;BME280;45213;32.654;-115.458;2023-01-19T11:46:58;102110.13;;;7.57;59.16
59409;BME280;45213;32.654;-115.458;2023-01-19T11:49:56;102105.72;;;7.54;58.78
59409;BME280;45213;32.654;-115.458;2023-01-19T11:52:58;102096.69;;;7.46;59.80
59409;BME280;45213;32.654;-115.458;2023-01-19T11:55:32;102094.03;;;7.44;59.42
59409;BME280;45213;32.654;-115.458;2023-01-19T11:58:02;102101.13;;;7.48;59.23
59409;BME280;45213;32.654;-115.458;2023-01-19T12:00:49;102104.41;;;7.44;59.07
59409;BME280;45213;32.654;-115.458;2023-01-19T12:03:23;102100.41;;;7.31;59.41
59409;BME280;45213;32.654;-115.458;2023-01-19T12:06:20;102101.09;;;7.27;59.61
59409;BME280;45213;32.654;-115.458;2023-01-19T12:11:37;102100.66;;;7.38;59.54
59409;BME280;45213;32.654;-115.458;2023-01-19T12:14:17;102098.06;;;7.38;59.25
59409;BME280;45213;32.654;-115.458;2023-01-19T12:16:45;102105.81;;;7.36;59.36
59409;BME280;45213;32.654;-115.458;2023-01-19T12:19:15;102101.09;;;7.27;59.99
59409;BME280;45213;32.654;-115.458;2023-01-19T12:21:44;102100.16;;;7.25;60.95
59409;BME280;45213;32.654;-115.458;2023-01-19T12:24:31;102101.84;;;7.25;60.21
59409;BME280;45213;32.654;-115.458;2023-01-19T12:27:11;102100.69;;;7.18;59.88
59409;BME280;45213;32.654;-115.458;2023-01-19T12:29:41;102100.53;;;7.15;60.22
59409;BME280;45213;32.654;-115.458;2023-01-19T12:34:47;102095.25;;;7.12;59.84
59409;BME280;45213;32.654;-115.458;2023-01-19T12:39:58;102094.16;;;7.07;59.82
59409;BME280;45213;32.654;-115.458;2023-01-19T12:42:26;102095.88;;;7.06;60.24
59409;BME280;45213;32.654;-115.458;2023-01-19T12:45:13;102102.59;;;7.03;60.33
59409;BME280;45213;32.654;-115.458;2023-01-19T12:47:49;102099.88;;;7.00;60.39
59409;BME280;45213;32.654;-115.458;2023-01-19T12:50:18;102109.13;;;6.95;60.28
59409;BME280;45213;32.654;-115.458;2023-01-19T12:52:53;102105.38;;;6.88;60.16
59409;BME280;45213;32.654;-115.458;2023-01-19T12:55:31;102107.75;;;6.83;60.00
59409;BME280;45213;32.654;-115.458;2023-01-19T12:58:00;102108.59;;;6.82;59.68
59409;BME280;45213;32.654;-115.458;2023-01-19T13:00:34;102110.31;;;6.82;59.24
59409;BME280;45213;32.654;-115.458;2023-01-19T13:05:52;102116.22;;;6.79;59.59
59409;BME280;45213;32.654;-115.458;2023-01-19T13:08:21;102111.78;;;6.77;59.51
59409;BME280;45213;32.654;-115.458;2023-01-19T13:18:49;102121.13;;;6.73;60.82
59409;BME280;45213;32.654;-115.458;2023-01-19T13:21:31;102121.13;;;6.73;60.33
59409;BME280;45213;32.654;-115.458;2023-01-19T13:24:01;102116.59;;;6.69;59.69
59409;BME280;45213;32.654;-115.458;2023-01-19T13:26:34;102118.66;;;6.57;60.57
59409;BME280;45213;32.654;-115.458;2023-01-19T13:29:09;102116.41;;;6.64;60.44
59409;BME280;45213;32.654;-115.458;2023-01-19T13:31:41;102115.66;;;6.67;60.18
59409;BME280;45213;32.654;-115.458;2023-01-19T13:34:17;102119.06;;;6.66;60.54
59409;BME280;45213;32.654;-115.458;2023-01-19T13:36:48;102122.53;;;6.66;60.60
59409;BME280;45213;32.654;-115.458;2023-01-19T13:39:26;102119.66;;;6.60;60.07
59409;BME280;45213;32.654;-115.458;2023-01-19T13:41:56;102119.38;;;6.54;60.00